Captain Jimmy T Moran — WDE6653 — position and weather

sailwx.info

Track history (hours):
 
Tides and Currents Weather Stations Pressure Air Temp Water Temp Dewpoint Dewpoint Depression Visibility Wind Speed Wind Dir Waves Ship Positions

Captain Jimmy T Moran

Owner: Moran Towing Corp, New Cannan, CT. More information available from US FCC via Universal Licensing System and Coast Guard Vessel Documentation Center.

Last reported at 2014-Nov-28 03:04 UTC. Time now 2014-Nov-28 04:17 UTC.
Position N 29°55' W 089°57'.

Length 26 m; draft 4.9 m.

Type: Tug. MMSI: 367382920.

Date/timePositionNaut miles runAvg speedWind from/ knotsBaromVisibWave heightAir tempDewpointWater temp
2014-Nov-28 03:04N 29°55' W 089°57'0 0.0
2014-Nov-28 01:30N 29°55' W 089°57'0 0.0
2014-Nov-28 00:28N 29°55' W 089°57'0 0.0
2014-Nov-27 22:16N 29°55' W 089°57'0 0.0
2014-Nov-27 21:27N 29°55' W 089°57'9 0.5
2014-Nov-27 05:30N 29°55' W 090°07'1 1.4
2014-Nov-27 04:32N 29°55' W 090°05'1 0.3
2014-Nov-27 00:14N 29°55' W 090°07'  
2014-Nov-20 16:17N 29°55' W 090°05'1 0.3
2014-Nov-20 13:30N 29°55' W 090°06'1 0.2
2014-Nov-20 09:26N 29°55' W 090°05'0 0.4
2014-Nov-20 08:31N 29°55' W 090°06'0 0.0
2014-Nov-20 06:26N 29°55' W 090°06'0 0.0
2014-Nov-20 05:12N 29°55' W 090°06'0 0.0
2014-Nov-20 04:24N 29°55' W 090°06'0 0.0
2014-Nov-20 03:11N 29°55' W 090°06'1 0.3
2014-Nov-20 00:32N 29°55' W 090°07'2 1.5
2014-Nov-19 23:12N 29°55' W 090°04'3 0.9
2014-Nov-19 20:15N 29°57' W 090°03'3 0.3
2014-Nov-19 10:08N 29°55' W 090°06'0 0.0
2014-Nov-19 09:20N 29°55' W 090°06'0 0.0
2014-Nov-19 08:32N 29°55' W 090°06'1 0.6
2014-Nov-19 07:20N 29°55' W 090°07'1 1.6
2014-Nov-19 06:33N 29°55' W 090°05'1 0.1
2014-Nov-18 15:31N 29°55' W 090°04'2 0.3
2014-Nov-18 09:26N 29°55' W 090°07'1 1.1
2014-Nov-18 08:26N 29°55' W 090°05'  
Track history (hours):
 
Tides and Currents Weather Stations Pressure Air Temp Water Temp Dewpoint Dewpoint Depression Visibility Wind Speed Wind Dir Waves Ship Positions

Captain Jimmy T Moran

Owner: Moran Towing Corp, New Cannan, CT. More information available from US FCC via Universal Licensing System and Coast Guard Vessel Documentation Center.

Last reported at 2014-Nov-28 03:04 UTC. Time now 2014-Nov-28 04:17 UTC.
Position N 29°55' W 089°57'.

Length 26 m; draft 4.9 m.

Type: Tug. MMSI: 367382920.

Date/timePositionNaut miles runAvg speedWind from/ knotsBaromVisibWave heightAir tempDewpointWater temp
2014-Nov-28 03:04N 29°55' W 089°57'0 0.0
2014-Nov-28 01:30N 29°55' W 089°57'0 0.0
2014-Nov-28 00:28N 29°55' W 089°57'0 0.0
2014-Nov-27 22:16N 29°55' W 089°57'0 0.0
2014-Nov-27 21:27N 29°55' W 089°57'9 0.5
2014-Nov-27 05:30N 29°55' W 090°07'1 1.4
2014-Nov-27 04:32N 29°55' W 090°05'1 0.3
2014-Nov-27 00:14N 29°55' W 090°07'  
2014-Nov-20 16:17N 29°55' W 090°05'1 0.3
2014-Nov-20 13:30N 29°55' W 090°06'1 0.2
2014-Nov-20 09:26N 29°55' W 090°05'0 0.4
2014-Nov-20 08:31N 29°55' W 090°06'0 0.0
2014-Nov-20 06:26N 29°55' W 090°06'0 0.0
2014-Nov-20 05:12N 29°55' W 090°06'0 0.0
2014-Nov-20 04:24N 29°55' W 090°06'0 0.0
2014-Nov-20 03:11N 29°55' W 090°06'1 0.3
2014-Nov-20 00:32N 29°55' W 090°07'2 1.5
2014-Nov-19 23:12N 29°55' W 090°04'3 0.9
2014-Nov-19 20:15N 29°57' W 090°03'3 0.3
2014-Nov-19 10:08N 29°55' W 090°06'0 0.0
2014-Nov-19 09:20N 29°55' W 090°06'0 0.0
2014-Nov-19 08:32N 29°55' W 090°06'1 0.6
2014-Nov-19 07:20N 29°55' W 090°07'1 1.6
2014-Nov-19 06:33N 29°55' W 090°05'1 0.1
2014-Nov-18 15:31N 29°55' W 090°04'2 0.3
2014-Nov-18 09:26N 29°55' W 090°07'1 1.1
2014-Nov-18 08:26N 29°55' W 090°05'  

Dump ship's entire track history